SBFZ/FOR METAR and TAF weather

Enter ICAO airport designator
Station Type Date Time Source
SBFZ METAR 2020/04/03 07:00 UTC NOAA

SBFZ 030700Z 16005KT 9999 SCT017 27/25 Q1010


Station Type Date Time Source
SBFZ Decoded METAR 2020/04/03 07:00 UTC NOAA

Fortaleza / pinto Martins , Brazil (SBFZ) 03-47S 038-32W 25M
Apr 03, 2020 - 03:00 AM EDT / 2020.04.03 0700 UTC
Wind: from the SSE (160 degrees) at 6 MPH (5 KT):0
Visibility: greater than 7 mile(s):0
Sky conditions: partly cloudy
Temperature: 80 F (27 C)
Dew Point: 77 F (25 C)
Relative Humidity: 88%
Pressure (altimeter): 29.83 in. Hg (1010 hPa)
ob: SBFZ 030700Z 16005KT 9999 SCT017 27/25 Q1010
cycle: 7

Station Type Date Time Source
SBFZ TAF 2020/04/03 06:56 UTC NOAA

TAF SBFZ 030400Z 0306/0406 17005KT 8000 SCT017 TN26/0308Z TX32/0318Z PROB30
TEMPO 0310/0313 6000 SHRA SCT010 FEW025TCU
BECMG 0312/0314 09012KT 9999
BECMG 0319/0321 11005KT
BECMG 0400/0402 17005KT
RMK PDU

Example: see airport list